createdAt,value
2024-04-18T00:09:59.149Z,97838.64
2024-04-18T00:20:06.421Z,97842.01
2024-04-18T00:30:13.750Z,97842.17
2024-04-18T00:40:21.524Z,97840.97
2024-04-18T00:50:29.012Z,97833.39
2024-04-18T01:00:35.715Z,97831.35
2024-04-18T01:10:42.250Z,97837.89
2024-04-18T01:20:48.984Z,97839.89
2024-04-18T01:31:00.157Z,97836.50
2024-04-18T01:41:06.819Z,97837.30
2024-04-18T01:51:13.401Z,97838.88
2024-04-18T02:01:25.941Z,97844.41
2024-04-18T02:11:33.009Z,97849.15
2024-04-18T02:21:39.944Z,97852.33
2024-04-18T02:31:46.568Z,97852.58
2024-04-18T02:41:53.890Z,97857.71
2024-04-18T02:52:00.604Z,97859.00
2024-04-18T03:02:08.017Z,97866.84
2024-04-18T03:12:14.396Z,97868.70
2024-04-18T03:22:20.901Z,97866.11
2024-04-18T03:32:27.554Z,97864.99
2024-04-18T03:42:34.632Z,97871.80
2024-04-18T03:52:41.766Z,97878.86
2024-04-18T04:02:48.862Z,97883.96
2024-04-18T04:12:55.545Z,97888.77
2024-04-18T04:23:02.028Z,97892.66
2024-04-18T04:33:08.953Z,97908.05
2024-04-18T04:43:16.334Z,97914.98
2024-04-18T04:53:22.686Z,97919.74
2024-04-18T05:03:29.971Z,97932.17
2024-04-18T05:13:36.835Z,97936.44
2024-04-18T05:23:43.532Z,97939.77
2024-04-18T05:33:50.084Z,97945.73
2024-04-18T05:43:57.196Z,97955.27
2024-04-18T06:04:24.672Z,97970.40
2024-04-18T06:14:31.552Z,97977.29
2024-04-18T06:24:38.027Z,97974.91
2024-04-18T06:34:45.288Z,97974.56
2024-04-18T06:44:52.332Z,97986.05
2024-04-18T06:54:59.022Z,97998.63
2024-04-18T07:05:06.553Z,98006.59
2024-04-18T07:15:13.407Z,98012.80
2024-04-18T07:25:20.179Z,98015.10
2024-04-18T07:35:26.920Z,98010.95
2024-04-18T07:45:36.786Z,98011.61
2024-04-18T07:55:44.570Z,98024.36
2024-04-18T08:05:53.256Z,98031.51
2024-04-18T08:16:05.016Z,98031.52
2024-04-18T08:26:11.602Z,98032.60
2024-04-18T08:36:18.397Z,98032.96
2024-04-18T08:46:27.226Z,98033.77
2024-04-18T08:56:35.995Z,98028.70
2024-04-18T09:06:42.949Z,98027.11
2024-04-18T09:16:49.610Z,98028.38
2024-04-18T09:26:56.861Z,98024.67
2024-04-18T09:37:07.355Z,98021.59
2024-04-18T09:47:16.481Z,98022.20
2024-04-18T09:57:24.450Z,98022.12
2024-04-18T10:07:32.910Z,98026.86
2024-04-18T10:17:41.845Z,98027.05
2024-04-18T10:27:48.333Z,98025.00
2024-04-18T10:37:56.119Z,98025.03
2024-04-18T10:48:04.756Z,98025.75
2024-04-18T10:58:16.687Z,98029.27
2024-04-18T11:08:23.436Z,98025.47
2024-04-18T11:18:30.797Z,98024.15
2024-04-18T11:28:41.666Z,98023.89
2024-04-18T11:38:48.884Z,98036.01
2024-04-18T11:48:56.383Z,98044.08
2024-04-18T11:59:04.193Z,98039.94
2024-04-18T12:09:11.138Z,98042.83
2024-04-18T12:19:18.262Z,98050.06
2024-04-18T12:29:25.085Z,98047.93
2024-04-18T12:39:31.685Z,98049.14
2024-04-18T12:49:42.149Z,98059.27
2024-04-18T12:59:48.763Z,98075.35
2024-04-18T13:09:56.644Z,98107.04
2024-04-18T13:20:03.819Z,98130.48
2024-04-18T13:30:11.464Z,98133.20
2024-04-18T13:40:19.163Z,98132.64
2024-04-18T13:50:31.735Z,98130.55
2024-04-18T14:00:39.131Z,98123.80
2024-04-18T14:10:46.190Z,98120.77
2024-04-18T14:20:55.150Z,98115.55
2024-04-18T14:31:01.810Z,98113.09
2024-04-18T14:41:12.105Z,98116.81
2024-04-18T14:51:20.201Z,98116.57
2024-04-18T15:01:26.580Z,98114.48
2024-04-18T15:11:34.375Z,98118.58
2024-04-18T15:21:41.170Z,98123.75
2024-04-18T15:31:47.728Z,98126.77
2024-04-18T15:41:54.789Z,98130.87
2024-04-18T15:52:02.186Z,98135.52
2024-04-18T16:02:09.964Z,98144.89
2024-04-18T16:12:16.963Z,98159.52
2024-04-18T16:22:24.284Z,98166.72
2024-04-18T16:32:31.024Z,98171.40
2024-04-18T16:42:38.143Z,98181.69
2024-04-18T16:52:49.561Z,98181.72
2024-04-18T17:02:56.261Z,98182.33
2024-04-18T17:13:03.151Z,98195.87
2024-04-18T17:23:09.774Z,98197.80
2024-04-18T17:33:16.478Z,98205.02
2024-04-18T17:43:23.730Z,98225.71
2024-04-18T17:53:31.144Z,98251.71
2024-04-18T18:03:37.500Z,98259.98
2024-04-18T18:13:44.211Z,98275.96
2024-04-18T18:23:50.770Z,98288.23
2024-04-18T18:33:57.279Z,98294.07
2024-04-18T18:44:04.237Z,98306.44
2024-04-18T18:54:11.481Z,98322.05
2024-04-18T19:04:18.744Z,98324.73
2024-04-18T19:14:27.754Z,98333.20
2024-04-18T19:24:35.036Z,98342.00
2024-04-18T19:34:41.971Z,98350.81
2024-04-18T19:44:48.507Z,98354.38
2024-04-18T19:54:55.952Z,98346.05
2024-04-18T20:05:02.425Z,98346.93
2024-04-18T20:15:10.097Z,98348.20
2024-04-18T20:25:16.617Z,98346.44
2024-04-18T20:35:23.611Z,98344.98
2024-04-18T20:45:31.533Z,98349.10
2024-04-18T20:55:39.110Z,98352.59
2024-04-18T21:05:48.069Z,98350.45
2024-04-18T21:16:01.236Z,98354.56
2024-04-18T21:26:08.034Z,98363.77
2024-04-18T21:36:14.364Z,98371.91
2024-04-18T21:46:20.973Z,98371.89
2024-04-18T21:56:27.606Z,98369.55
2024-04-18T22:06:34.933Z,98369.77
2024-04-18T22:16:43.857Z,98368.34
2024-04-18T22:26:50.423Z,98376.33
2024-04-18T22:36:57.178Z,98380.63
2024-04-18T22:47:03.817Z,98376.91
2024-04-18T22:57:10.206Z,98368.59
2024-04-18T23:07:17.277Z,98367.23
2024-04-18T23:17:23.883Z,98369.05
2024-04-18T23:27:30.959Z,98363.24
2024-04-18T23:37:39.565Z,98363.97
2024-04-18T23:47:46.057Z,98369.47
2024-04-18T23:57:52.787Z,98358.79
